createdAt,value
2023-06-21T00:04:30.797Z,0.00
2023-06-21T00:09:30.745Z,0.00
2023-06-21T00:14:30.680Z,0.00
2023-06-21T00:19:30.611Z,0.00
2023-06-21T00:24:30.591Z,0.00
2023-06-21T00:29:30.495Z,0.00
2023-06-21T00:34:30.394Z,0.00
2023-06-21T00:39:30.338Z,0.00
2023-06-21T00:44:30.271Z,0.00
2023-06-21T00:49:30.213Z,0.00
2023-06-21T00:54:30.124Z,0.00
2023-06-21T00:59:30.067Z,0.00
2023-06-21T01:04:30.013Z,0.00
2023-06-21T01:09:29.928Z,0.00
2023-06-21T01:14:29.871Z,0.00
2023-06-21T01:19:29.797Z,0.00
2023-06-21T01:24:29.756Z,0.00
2023-06-21T01:29:29.661Z,0.00
2023-06-21T01:34:29.594Z,0.00
2023-06-21T01:39:29.537Z,0.00
2023-06-21T01:44:29.480Z,0.00
2023-06-21T01:49:29.399Z,0.00
2023-06-21T01:54:29.339Z,0.00
2023-06-21T01:59:29.272Z,0.00
2023-06-21T02:04:29.199Z,0.00
2023-06-21T02:09:29.133Z,0.00
2023-06-21T02:14:29.146Z,0.00
2023-06-21T02:19:29.005Z,4.00
2023-06-21T02:24:28.957Z,4.00
2023-06-21T02:29:28.862Z,12.00
2023-06-21T02:34:28.829Z,24.00
2023-06-21T02:39:28.743Z,40.00
2023-06-21T02:44:28.677Z,68.00
2023-06-21T02:49:28.609Z,104.00
2023-06-21T02:54:28.556Z,152.00
2023-06-21T02:59:28.472Z,236.00
2023-06-21T03:04:28.437Z,360.00
2023-06-21T03:09:28.350Z,540.00
2023-06-21T03:14:28.286Z,768.00
2023-06-21T03:19:28.207Z,1044.00
2023-06-21T03:24:28.185Z,1372.00
2023-06-21T03:29:28.082Z,1752.00
2023-06-21T03:34:28.017Z,2164.00
2023-06-21T03:39:27.955Z,2496.00
2023-06-21T03:44:27.904Z,2852.00
2023-06-21T03:49:27.819Z,3592.00
2023-06-21T03:54:27.763Z,3708.00
2023-06-21T03:59:27.697Z,4928.00
2023-06-21T04:04:27.633Z,10720.00
2023-06-21T04:09:27.558Z,5292.00
2023-06-21T04:14:27.514Z,6964.00
2023-06-21T04:19:27.434Z,9384.00
2023-06-21T04:24:27.410Z,6948.00
2023-06-21T04:29:27.290Z,21920.00
2023-06-21T04:34:27.241Z,24704.00
2023-06-21T04:39:27.152Z,25792.00
2023-06-21T04:44:27.106Z,25184.00
2023-06-21T04:49:27.268Z,30240.00
2023-06-21T04:54:27.184Z,32448.00
2023-06-21T04:59:26.887Z,32160.00
2023-06-21T05:04:26.838Z,33664.00
2023-06-21T05:09:26.771Z,31712.00
2023-06-21T05:14:26.707Z,36064.00
2023-06-21T05:19:26.628Z,35904.00
2023-06-21T05:24:26.660Z,40384.00
2023-06-21T05:29:26.503Z,45280.00
2023-06-21T05:34:26.446Z,48512.00
2023-06-21T05:39:26.369Z,24736.00
2023-06-21T05:44:26.312Z,23328.00
2023-06-21T05:49:26.237Z,27680.00
2023-06-21T05:54:26.169Z,44608.00
2023-06-21T05:59:26.095Z,54272.00
2023-06-21T06:04:26.044Z,52224.00
2023-06-21T06:09:25.974Z,57280.00
2023-06-21T06:14:25.909Z,58976.00
2023-06-21T06:19:25.824Z,62720.00
2023-06-21T06:24:25.774Z,51968.00
2023-06-21T06:29:25.690Z,56992.00
2023-06-21T06:34:25.644Z,50592.00
2023-06-21T06:39:25.579Z,46432.00
2023-06-21T06:44:25.520Z,65184.00
2023-06-21T06:49:25.452Z,55104.00
2023-06-21T06:54:25.378Z,65824.00
2023-06-21T06:59:26.631Z,72896.00
2023-06-21T07:04:25.307Z,63552.00
2023-06-21T07:09:25.184Z,59584.00
2023-06-21T07:14:25.114Z,77600.00
2023-06-21T07:19:25.035Z,75168.00
2023-06-21T07:24:24.985Z,74080.00
2023-06-21T07:29:24.907Z,76704.00
2023-06-21T07:34:24.862Z,73376.00
2023-06-21T07:39:24.796Z,82784.00
2023-06-21T07:44:24.725Z,85280.00
2023-06-21T07:49:24.665Z,76160.00
2023-06-21T07:54:24.592Z,71392.00
2023-06-21T07:59:24.542Z,82240.00
2023-06-21T08:04:24.598Z,77888.00
2023-06-21T08:09:24.383Z,81952.00
2023-06-21T08:14:24.338Z,75872.00
2023-06-21T08:19:24.254Z,74912.00
2023-06-21T08:24:24.196Z,60800.00
2023-06-21T08:29:24.128Z,65792.00
2023-06-21T08:34:24.064Z,74560.00
2023-06-21T08:39:23.987Z,62336.00
2023-06-21T08:44:23.915Z,64896.00
2023-06-21T08:49:23.853Z,65760.00
2023-06-21T08:54:23.846Z,41472.00
2023-06-21T08:59:23.817Z,43040.00
2023-06-21T09:04:24.175Z,39552.00
2023-06-21T09:09:23.887Z,71040.00
2023-06-21T09:14:23.540Z,71680.00
2023-06-21T09:19:23.478Z,70752.00
2023-06-21T09:24:23.402Z,73184.00
2023-06-21T09:29:23.324Z,16652.00
2023-06-21T09:34:23.257Z,64864.00
2023-06-21T09:39:23.195Z,19200.00
2023-06-21T09:44:23.125Z,17276.00
2023-06-21T09:49:23.050Z,16844.00
2023-06-21T09:54:22.991Z,14628.00
2023-06-21T09:59:22.937Z,16256.00
2023-06-21T10:04:22.843Z,15864.00
2023-06-21T10:09:22.808Z,15856.00
2023-06-21T10:14:22.733Z,17600.00
2023-06-21T10:19:22.662Z,20864.00
2023-06-21T10:24:22.576Z,21344.00
2023-06-21T10:29:22.683Z,23456.00
2023-06-21T10:34:22.462Z,22688.00
2023-06-21T10:39:22.372Z,19872.00
2023-06-21T10:44:25.029Z,19744.00
2023-06-21T10:49:22.261Z,24736.00
2023-06-21T10:54:22.176Z,54624.00
2023-06-21T10:59:22.104Z,18560.00
2023-06-21T11:04:22.073Z,21536.00
2023-06-21T11:09:21.975Z,18720.00
2023-06-21T11:14:21.909Z,20992.00
2023-06-21T11:19:21.956Z,26592.00
2023-06-21T11:24:21.776Z,59840.00
2023-06-21T11:29:21.698Z,25664.00
2023-06-21T11:34:21.641Z,22592.00
2023-06-21T11:39:21.567Z,17824.00
2023-06-21T11:44:21.517Z,17408.00
2023-06-21T11:49:21.444Z,21440.00
2023-06-21T11:54:21.391Z,21600.00
2023-06-21T11:59:21.309Z,23968.00
2023-06-21T12:04:21.387Z,25344.00
2023-06-21T12:09:21.182Z,23136.00
2023-06-21T12:14:21.131Z,21024.00
2023-06-21T12:19:21.041Z,21184.00
2023-06-21T12:24:20.997Z,18688.00
2023-06-21T12:29:20.930Z,13156.00
2023-06-21T12:34:20.875Z,16768.00
2023-06-21T12:39:20.792Z,16472.00
2023-06-21T12:44:20.735Z,17856.00
2023-06-21T12:49:20.689Z,17792.00
2023-06-21T12:54:20.663Z,17792.00
2023-06-21T12:59:20.570Z,16736.00
2023-06-21T13:04:20.789Z,15256.00
2023-06-21T13:09:20.415Z,14016.00
2023-06-21T13:14:20.370Z,16768.00
2023-06-21T13:19:20.296Z,17856.00
2023-06-21T13:24:20.231Z,15664.00
2023-06-21T13:29:20.165Z,14408.00
2023-06-21T13:34:20.113Z,12172.00
2023-06-21T13:39:20.056Z,11948.00
2023-06-21T13:44:19.981Z,12168.00
2023-06-21T13:49:21.848Z,12496.00
2023-06-21T13:54:19.904Z,13216.00
2023-06-21T13:59:19.782Z,13704.00
2023-06-21T14:04:19.802Z,12732.00
2023-06-21T14:09:19.660Z,12256.00
2023-06-21T14:14:19.604Z,12864.00
2023-06-21T14:19:19.520Z,13864.00
2023-06-21T14:24:19.492Z,13724.00
2023-06-21T14:29:19.423Z,12000.00
2023-06-21T14:34:19.338Z,12440.00
2023-06-21T14:39:19.278Z,13096.00
2023-06-21T14:44:19.216Z,11296.00
2023-06-21T14:49:19.149Z,10588.00
2023-06-21T14:54:19.097Z,10760.00
2023-06-21T14:59:19.027Z,10328.00
2023-06-21T15:04:18.970Z,9968.00
2023-06-21T15:09:18.899Z,10856.00
2023-06-21T15:14:18.834Z,11656.00
2023-06-21T15:19:18.772Z,11388.00
2023-06-21T15:24:18.733Z,10540.00
2023-06-21T15:29:18.654Z,10092.00
2023-06-21T15:34:18.590Z,9776.00
2023-06-21T15:39:18.521Z,9488.00
2023-06-21T15:44:18.478Z,8052.00
2023-06-21T15:49:18.393Z,6576.00
2023-06-21T15:54:18.335Z,6836.00
2023-06-21T15:59:18.259Z,8524.00
2023-06-21T16:04:18.308Z,7628.00
2023-06-21T16:09:18.134Z,6676.00
2023-06-21T16:14:18.080Z,5740.00
2023-06-21T16:19:18.002Z,4748.00
2023-06-21T16:24:17.950Z,4100.00
2023-06-21T16:29:17.902Z,3600.00
2023-06-21T16:34:17.821Z,3532.00
2023-06-21T16:39:17.751Z,3816.00
2023-06-21T16:44:17.685Z,4188.00
2023-06-21T16:49:22.823Z,4784.00
2023-06-21T16:54:17.552Z,5384.00
2023-06-21T16:59:17.495Z,5876.00
2023-06-21T17:04:17.418Z,6312.00
2023-06-21T17:09:17.348Z,6416.00
2023-06-21T17:14:17.313Z,6168.00
2023-06-21T17:19:17.221Z,5736.00
2023-06-21T17:24:17.180Z,5560.00
2023-06-21T17:29:17.094Z,5444.00
2023-06-21T17:34:17.065Z,5308.00
2023-06-21T17:39:16.958Z,5112.00
2023-06-21T17:44:16.908Z,4800.00
2023-06-21T17:49:16.834Z,4476.00
2023-06-21T17:54:16.780Z,4132.00
2023-06-21T17:59:16.713Z,3752.00
2023-06-21T18:04:16.796Z,3456.00
2023-06-21T18:09:16.588Z,3328.00
2023-06-21T18:14:16.538Z,3252.00
2023-06-21T18:19:16.524Z,2956.00
2023-06-21T18:24:16.437Z,2552.00
2023-06-21T18:29:16.351Z,2152.00
2023-06-21T18:34:16.289Z,1860.00
2023-06-21T18:39:16.212Z,1500.00
2023-06-21T18:44:16.143Z,1204.00
2023-06-21T18:49:16.096Z,992.00
2023-06-21T18:54:16.053Z,832.00
2023-06-21T18:59:15.944Z,696.00
2023-06-21T19:04:16.141Z,584.00
2023-06-21T19:09:15.808Z,484.00
2023-06-21T19:14:15.757Z,404.00
2023-06-21T19:19:15.690Z,324.00
2023-06-21T19:24:15.663Z,248.00
2023-06-21T19:29:15.561Z,176.00
2023-06-21T19:34:15.518Z,120.00
2023-06-21T19:39:15.434Z,72.00
2023-06-21T19:44:15.372Z,44.00
2023-06-21T19:49:15.306Z,24.00
2023-06-21T19:54:15.239Z,16.00
2023-06-21T19:59:15.175Z,8.00
2023-06-21T20:04:15.127Z,4.00
2023-06-21T20:09:15.054Z,4.00
2023-06-21T20:14:14.981Z,0.00
2023-06-21T20:19:14.928Z,0.00
2023-06-21T20:24:14.852Z,0.00
2023-06-21T20:29:14.781Z,0.00
2023-06-21T20:34:14.721Z,0.00
2023-06-21T20:39:14.657Z,0.00
2023-06-21T20:44:14.601Z,0.00
2023-06-21T20:49:14.531Z,0.00
2023-06-21T20:54:14.451Z,0.00
2023-06-21T20:59:14.388Z,0.00
2023-06-21T21:04:14.311Z,0.00
2023-06-21T21:09:14.262Z,0.00
2023-06-21T21:14:14.193Z,0.00
2023-06-21T21:19:14.111Z,0.00
2023-06-21T21:24:14.061Z,0.00
2023-06-21T21:29:13.977Z,0.00
2023-06-21T21:34:13.902Z,0.00
2023-06-21T21:39:13.833Z,0.00
2023-06-21T21:44:13.773Z,0.00
2023-06-21T21:49:13.686Z,0.00
2023-06-21T21:54:13.642Z,0.00
2023-06-21T21:59:13.570Z,0.00
2023-06-21T22:04:13.647Z,0.00
2023-06-21T22:09:13.425Z,0.00
2023-06-21T22:14:13.361Z,0.00
2023-06-21T22:19:13.279Z,0.00
2023-06-21T22:24:13.227Z,0.00
2023-06-21T22:29:13.155Z,0.00
2023-06-21T22:34:13.098Z,0.00
2023-06-21T22:39:13.039Z,0.00
2023-06-21T22:44:12.972Z,0.00
2023-06-21T22:49:12.902Z,0.00
2023-06-21T22:54:12.843Z,0.00
2023-06-21T22:59:12.768Z,0.00
2023-06-21T23:04:12.816Z,0.00
2023-06-21T23:09:12.626Z,0.00
2023-06-21T23:14:12.641Z,0.00
2023-06-21T23:19:12.498Z,0.00
2023-06-21T23:24:12.444Z,0.00
2023-06-21T23:29:12.698Z,0.00
2023-06-21T23:34:12.512Z,0.00
2023-06-21T23:39:12.269Z,0.00
2023-06-21T23:44:12.194Z,0.00
2023-06-21T23:49:12.122Z,0.00
2023-06-21T23:54:12.069Z,0.00
2023-06-21T23:59:12.001Z,0.00
